Terminal Aerodrome Forecast
Issued by NWS Sioux Falls, SD

Home | Current Version | Previous Version | Graphics & Text | Print | Product List | Glossary Off
Versions: 1 2 3 4 5 6 7 8 9 10 11 12 13 14 15 16 17 18

000
FTUS43 KFSD 211100
TAFFSD
TAF
KFSD 211120Z 2112/2212 20009KT P6SM BKN035
     FM211600 21006KT P6SM SCT040
     FM220100 35006KT P6SM SCT035 BKN100
     FM221000 VRB04KT 5SM BR SCT040=

USA.gov is the U.S. government's official web portal to all federal, state and local government web resources and services.